Capitol Logistics 323


KAUS
Austin-Bergstrom International Airport
Austin, Texas, US
KMIA
Miami International Airport
Miami, Florida, US

Activity Log

Date Flight Route Aircraft Duration
12/18/2018 CPX323 LEXY2 ZENZI IAH J86 LEV Q102 BLVNS Y290 BAGGS SSCOT5 B752 2h 31m
11/30/2018 CPX363 ILEXY2 ZENZI IAH J86 LEV Q102 BAGGS SSCOT5 B752 2h 08m

Route Details

Aircraft Information
Primary: Boeing 767-300BDSF
Backup: Not Available
Route Data
Distance: 990nm
Sched. Duration: 2h 45m
Avg. Duration: 2h 20m (-25m)
Times Flown: 2
Recm'd Route: ILEXY2 ZENZI IAH J86 LEV Q102 BAGGS SSCOT5
Planned Altitude: 37,000ft
Origin Wx: KAUS 281953Z VRB04KT 10SM FEW250 21/M01 A3033 RMK AO2 SLP270 T02111011 $
Dest. Wx: KMIA 281953Z 32008G16KT 280V360 10SM CLR 19/03 A3019 RMK AO2 SLP223 T01940028
Notes:

Financial History
Total Freight: 108,341lbs
Average Load: 54,171lbs/flt
Fuel Used: 40,353lbs
Avg. Fuel Used: 20,177lbs/flt
Fuel Expense: $43,581
Avg. Fuel Expense: $21,791
Avg. Fuel Cost: $1.08/lbs
Total Gross Income: $137,593
Pilot Pay: $298
Total Expenses: $14,964
Total Revenue: $77,954
Average Revenue: $68,796.50